Bei Facebook empfehlenBei Twitter postenGoogle plusPinterest

Das Wetter im Erzgebirge am 08.03.2016

Wetter und Klima am 08.03.2016 Holzhau im Erzgebirge (630m ü.NN)
Letzte gemessene Temperatur und Uhrzeit der Messung23:45:00 Uhr-5.30 °C
Temperatur (Maximum / Höchstwert) und Uhrzeit der Messung13:00:00 Uhr5.10 °C
Temperatur (Minimum / Tiefstwert) und Uhrzeit der Messung23:45:00-5.30 °C
Errechneter Absolutwert der Temperaturschwankungen zwischen Tmin und Tmax des Tages10.40 K
Errechnete Tagesmitteltemperatur-1.28750 °C
Gesamt - Niederschlag des Tages (in flüssiger Form)0.52 Liter / m²
Luftdruck (Maximum / Höchstwert) und Zeitpunkt der Messung23:00:00 Uhr1012.50 hPa
Luftdruck (Minimum / Tiefstwert) und Zeitpunkt der Messung00:00:00 Uhr1003.30 hPa
Errechneter Absolutwert der Luftdruckschwankungen des Tages9.20 hPa
Höchste gemessene Windgeschwindigkeit und Uhrzeit der Messung12:30:00 Uhr6.12 km/h
Errechnete Windhäufigkeit in Relation zu den Messwerten des Tages5.20833 %
Niedrigste Windkühle (Windchill) und Zeitpunkt der Messung23:45:00 Uhr-5.30 °C
Taupunkt (Maximum / Höchstwert) und Uhrzeit der Messung12:30:00 Uhr1.60 °C
Taupunkt (Minimum / Tiefstwert) und Uhrzeit der Messung23:45:00-7.00 °C
Anzahl der automatisch eingelesenen Messwerte 96

Detaillierte Wetter- und Klima- Messwerte für den 08.03.2016 in Holzhau im Erzgebirge (630m ü.NN)
ZeitTemperaturLuftdruckRel. LuftfeuchteWindWindrichtungWindchillTaupunktNiederschlag l/m²
23:45:00-5.30 °C1012.40 hPa89.00 %-7.00 °C0.52
23:30:00-5.20 °C1012.40 hPa89.00 %-6.90 °C0.52
23:15:00-5.10 °C1012.40 hPa88.00 %-7.00 °C0.52
23:00:00-5.00 °C1012.50 hPa89.00 %-6.70 °C0.52
22:45:00-4.70 °C1012.50 hPa89.00 %-6.40 °C0.52
22:30:00-4.50 °C1012.40 hPa88.00 %-6.40 °C0.52
22:15:00-4.20 °C1012.50 hPa88.00 %-6.10 °C0.52
22:00:00-4.10 °C1012.50 hPa88.00 %-6.00 °C0.52
21:45:00-3.90 °C1012.40 hPa88.00 %-5.80 °C0.52
21:30:00-3.70 °C1012.50 hPa88.00 %-5.60 °C0.52
21:15:00-3.70 °C1012.30 hPa88.00 %-5.60 °C0.52
21:00:00-3.60 °C1012.20 hPa87.00 %-5.70 °C0.52
20:45:00-3.50 °C1012.20 hPa87.00 %-5.60 °C0.52
20:30:00-3.30 °C1012.00 hPa86.00 %-5.50 °C0.52
20:15:00-3.10 °C1012.00 hPa86.00 %-5.30 °C0.52
20:00:00-2.80 °C1011.80 hPa86.00 %-5.10 °C0.52
19:45:00-2.60 °C1011.80 hPa86.00 %-4.90 °C0.52
19:30:00-2.50 °C1011.90 hPa85.00 %-4.90 °C0.52
19:15:00-2.10 °C1011.60 hPa85.00 %-4.50 °C0.52
19:00:00-1.60 °C1011.50 hPa84.00 %-4.20 °C0.52
18:45:00-1.10 °C1011.50 hPa84.00 %-3.70 °C0.52
18:30:00-0.70 °C1011.40 hPa84.00 %-3.30 °C0.52
18:15:00-0.10 °C1011.10 hPa83.00 %-2.90 °C0.52
18:00:000.30 °C1011.20 hPa83.00 %-2.20 °C0.52
17:45:000.50 °C1011.10 hPa83.00 %-2.00 °C0.52
17:30:000.80 °C1011.00 hPa82.00 %-1.90 °C0.52
17:15:001.30 °C1010.90 hPa80.00 %-1.80 °C0.52
17:00:002.10 °C1010.80 hPa80.00 %-1.00 °C0.52
16:45:002.40 °C1010.70 hPa81.00 %-0.50 °C0.52
16:30:002.30 °C1010.40 hPa82.00 %-0.40 °C0.52
16:15:001.90 °C1010.40 hPa82.00 %-0.80 °C0.52
16:00:001.80 °C1010.20 hPa82.00 %-0.90 °C0.52
15:45:002.10 °C1010.00 hPa82.00 %-0.60 °C 
15:30:002.40 °C1009.80 hPa82.00 %-0.40 °C 
15:15:002.40 °C1009.80 hPa84.00 %0.00 °C 
15:00:001.80 °C1009.70 hPa83.00 %-0.80 °C 
14:45:000.70 °C1009.80 hPa82.00 %-2.00 °C 
14:30:000.90 °C1009.70 hPa81.00 %-2.00 °C 
14:15:001.30 °C1009.70 hPa80.00 %-1.80 °C 
14:00:001.30 °C1009.60 hPa78.00 %-2.10 °C 
13:45:001.60 °C1009.50 hPa77.00 %-2.00 °C 
13:30:003.00 °C1009.40 hPa74.00 %-1.20 °C 
13:15:004.40 °C1009.30 hPa74.00 %0.20 °C 
13:00:005.10 °C1009.30 hPa75.00 %1.00 °C 
12:45:005.10 °C1009.10 hPa77.00 %1.40 °C 
12:30:004.80 °C1009.10 hPa80.00 %6.12 km/hONO3.50 °C1.60 °C 
12:15:004.10 °C1008.90 hPa80.00 %1.00 °C 
12:00:004.10 °C1009.00 hPa82.00 %4.68 km/hNW4.10 °C1.30 °C 
11:45:003.60 °C1008.70 hPa83.00 %1.00 °C 
11:30:003.60 °C1008.70 hPa86.00 %1.50 °C 
11:15:003.40 °C1008.50 hPa87.00 %1.40 °C 
11:00:002.90 °C1008.30 hPa89.00 %1.30 °C 
10:45:002.30 °C1008.40 hPa88.00 %3.96 km/hSO2.30 °C0.50 °C 
10:30:002.40 °C1008.20 hPa89.00 %0.80 °C 
10:15:002.80 °C1008.10 hPa91.00 %1.50 °C 
10:00:002.90 °C1007.80 hPa91.00 %1.60 °C 
09:45:002.50 °C1007.60 hPa93.00 %1.50 °C 
09:30:001.60 °C1007.40 hPa93.00 %0.60 °C 
09:15:000.90 °C1007.20 hPa93.00 %-0.10 °C 
09:00:000.50 °C1007.10 hPa93.00 %-0.50 °C 
08:45:000.10 °C1007.10 hPa93.00 %-0.90 °C 
08:30:00-0.40 °C1006.80 hPa93.00 %-1.50 °C 
08:15:00-0.90 °C1006.70 hPa93.00 %-2.00 °C 
08:00:00-1.40 °C1006.40 hPa93.00 %-2.50 °C 
07:45:00-1.90 °C1006.20 hPa93.00 %-3.00 °C 
07:30:00-2.20 °C1006.10 hPa92.00 %-3.50 °C 
07:15:00-2.70 °C1006.00 hPa92.00 %-3.90 °C 
07:00:00-3.00 °C1005.90 hPa92.00 %-4.20 °C 
06:45:00-3.20 °C1005.70 hPa92.00 %-4.40 °C 
06:30:00-3.40 °C1005.60 hPa92.00 %-4.60 °C 
06:15:00-3.70 °C1005.40 hPa92.00 %-4.90 °C 
06:00:00-3.80 °C1005.10 hPa92.00 %-5.00 °C 
05:45:00-3.90 °C1005.00 hPa92.00 %-5.10 °C 
05:30:00-4.10 °C1004.80 hPa92.00 %-5.30 °C 
05:15:00-4.10 °C1004.60 hPa92.00 %-5.30 °C 
05:00:00-4.20 °C1004.50 hPa92.00 %-5.40 °C 
04:45:00-4.40 °C1004.50 hPa92.00 %-5.60 °C 
04:30:00-4.50 °C1004.40 hPa91.00 %-5.90 °C 
04:15:00-4.50 °C1004.40 hPa91.00 %-5.90 °C 
04:00:00-4.50 °C1004.30 hPa91.00 %-5.90 °C 
03:45:00-4.60 °C1004.20 hPa91.00 %-6.00 °C 
03:30:00-4.60 °C1004.10 hPa91.00 %-6.00 °C 
03:15:00-4.60 °C1004.00 hPa91.00 %-6.00 °C 
03:00:00-4.60 °C1003.90 hPa91.00 %2.52 km/hOSO-4.60 °C-6.00 °C 
02:45:00-4.60 °C1003.70 hPa91.00 %-6.00 °C 
02:30:00-4.60 °C1003.70 hPa91.00 %-6.00 °C 
02:15:00-4.50 °C1003.60 hPa91.00 %-5.90 °C 
02:00:00-4.40 °C1003.80 hPa91.00 %-5.80 °C 
01:45:00-4.40 °C1003.80 hPa91.00 %-5.80 °C 
01:30:00-4.40 °C1003.80 hPa91.00 %-5.80 °C 
01:15:00-4.60 °C1003.90 hPa91.00 %3.96 km/hOSO-4.60 °C-6.00 °C 
01:00:00-4.80 °C1003.80 hPa90.00 %-6.40 °C 
00:45:00-5.00 °C1003.50 hPa90.00 %-6.60 °C 
00:30:00-5.00 °C1003.50 hPa90.00 %-6.60 °C 
00:15:00-5.00 °C1003.40 hPa90.00 %-6.60 °C 
00:00:00-4.70 °C1003.30 hPa89.00 %-6.40 °C 

Permanenter Link zu dieser Seite: Wetter im Erzgebirge am 08.03.2016
Performance-Info: Die Erstellung der Seite / Statistik(en) / Tabelle(n) erforderte 5 Datenbankserver-Abfrage(n) und dauerte 101 Millisekunden. (Dieser Messwert ist von der Gesamt-Auslastung des Servers abhängig.)
Erzgebirge - Wetter | Erzgebirge - Wetter (Mobilgeräte) | Komplette Klimadatenbank